createdAt,value
2022-11-18T00:01:20.075Z,95954.25
2022-11-18T00:03:47.353Z,95954.41
2022-11-18T00:06:18.004Z,95953.75
2022-11-18T00:08:44.786Z,95955.69
2022-11-18T00:11:37.670Z,95948.22
2022-11-18T00:14:20.553Z,95941.41
2022-11-18T00:16:57.327Z,95942.66
2022-11-18T00:19:37.332Z,95938.75
2022-11-18T00:22:07.030Z,95935.50
2022-11-18T00:24:34.457Z,95940.81
2022-11-18T00:27:01.320Z,95938.50
2022-11-18T00:29:28.639Z,95933.78
2022-11-18T00:31:56.561Z,95930.84
2022-11-18T00:34:24.274Z,95930.97
2022-11-18T00:36:51.091Z,95931.41
2022-11-18T00:39:20.377Z,95923.78
2022-11-18T00:42:06.575Z,95925.06
2022-11-18T00:44:33.753Z,95940.75
2022-11-18T00:47:00.535Z,95943.59
2022-11-18T00:49:27.367Z,95944.56
2022-11-18T00:51:54.091Z,95942.94
2022-11-18T00:54:21.574Z,95940.19
2022-11-18T00:56:48.518Z,95941.97
2022-11-18T00:59:15.757Z,95957.34
2022-11-18T01:01:42.869Z,95961.59
2022-11-18T01:04:09.695Z,95947.97
2022-11-18T01:06:36.461Z,95947.16
2022-11-18T01:09:03.175Z,95955.88
2022-11-18T01:11:48.591Z,95952.63
2022-11-18T01:14:15.302Z,95946.78
2022-11-18T01:16:42.085Z,95943.84
2022-11-18T01:19:08.787Z,95951.06
2022-11-18T01:21:35.507Z,95947.00
2022-11-18T01:24:02.241Z,95957.66
2022-11-18T01:26:28.953Z,95947.81
2022-11-18T01:28:57.548Z,95949.09
2022-11-18T01:31:24.677Z,95949.69
2022-11-18T01:33:52.184Z,95946.69
2022-11-18T01:36:25.847Z,95960.06
2022-11-18T01:38:52.849Z,95947.69
2022-11-18T01:41:23.576Z,95950.72
2022-11-18T01:44:25.299Z,95962.63
2022-11-18T01:46:52.087Z,95963.16
2022-11-18T01:49:19.510Z,95969.75
2022-11-18T01:51:54.150Z,95976.13
2022-11-18T01:54:35.631Z,95979.81
2022-11-18T01:57:12.246Z,95971.91
2022-11-18T01:59:43.575Z,95972.31
2022-11-18T02:02:15.143Z,95974.63
2022-11-18T02:04:48.369Z,95979.34
2022-11-18T02:07:15.925Z,95984.38
2022-11-18T02:09:43.442Z,95979.75
2022-11-18T02:12:11.191Z,95973.63
2022-11-18T02:14:43.099Z,95972.38
2022-11-18T02:17:42.358Z,95970.59
2022-11-18T02:20:09.073Z,95971.28
2022-11-18T02:23:17.896Z,95956.56
2022-11-18T02:26:06.166Z,95961.72
2022-11-18T02:29:08.506Z,95973.03
2022-11-18T02:31:55.328Z,95967.50
2022-11-18T02:34:44.037Z,95960.13
2022-11-18T02:37:21.784Z,95953.34
2022-11-18T02:40:25.546Z,95959.63
2022-11-18T02:43:10.287Z,95965.09
2022-11-18T02:45:43.842Z,95958.84
2022-11-18T02:48:14.142Z,95959.94
2022-11-18T02:50:45.165Z,95962.69
2022-11-18T02:53:19.301Z,95964.31
2022-11-18T02:55:48.858Z,95962.38
2022-11-18T02:58:20.128Z,95961.97
2022-11-18T03:00:58.382Z,95963.47
2022-11-18T03:03:35.545Z,95967.53
2022-11-18T03:06:35.391Z,95959.75
2022-11-18T03:09:38.246Z,95967.66
2022-11-18T03:12:37.223Z,95958.81
2022-11-18T03:15:49.582Z,95960.44
2022-11-18T03:18:42.696Z,95955.78
2022-11-18T03:21:23.814Z,95963.44
2022-11-18T03:24:10.101Z,95975.25
2022-11-18T03:26:43.766Z,95975.09
2022-11-18T03:29:26.123Z,95973.34
2022-11-18T03:32:09.598Z,95964.91
2022-11-18T03:35:09.822Z,95974.59
2022-11-18T03:37:39.584Z,95990.09
2022-11-18T03:40:17.537Z,95986.16
2022-11-18T03:42:53.327Z,96000.34
2022-11-18T03:45:27.657Z,95995.97
2022-11-18T03:48:13.954Z,96003.44
2022-11-18T03:50:55.829Z,95995.28
2022-11-18T03:53:30.780Z,95997.44
2022-11-18T03:56:19.666Z,95997.00
2022-11-18T03:59:03.195Z,95999.31
2022-11-18T04:01:41.626Z,95996.72
2022-11-18T04:04:10.361Z,95987.06
2022-11-18T04:06:42.873Z,95990.16
2022-11-18T04:09:18.366Z,95995.47
2022-11-18T04:12:04.711Z,96006.50
2022-11-18T04:14:42.087Z,96003.09
2022-11-18T04:17:22.567Z,96008.28
2022-11-18T04:19:49.819Z,96014.94
2022-11-18T04:22:17.707Z,96013.16
2022-11-18T04:24:44.617Z,96018.19
2022-11-18T04:27:11.677Z,96012.75
2022-11-18T04:29:38.421Z,96022.13
2022-11-18T04:32:05.949Z,96019.56
2022-11-18T04:34:32.697Z,96027.97
2022-11-18T04:36:59.677Z,96032.19
2022-11-18T04:39:26.535Z,96034.63
2022-11-18T04:41:56.125Z,96033.69
2022-11-18T04:44:32.513Z,96036.13
2022-11-18T04:47:03.691Z,96032.56
2022-11-18T04:49:31.457Z,96035.16
2022-11-18T04:51:59.401Z,96033.38
2022-11-18T04:54:27.899Z,96027.41
2022-11-18T04:56:55.505Z,96029.97
2022-11-18T04:59:26.597Z,96029.03
2022-11-18T05:01:54.599Z,96028.22
2022-11-18T05:04:25.136Z,96025.63
2022-11-18T05:06:52.790Z,96024.66
2022-11-18T05:09:20.433Z,96028.88
2022-11-18T05:12:06.813Z,96022.66
2022-11-18T05:14:34.268Z,96036.25
2022-11-18T05:17:04.479Z,96031.91
2022-11-18T05:19:31.231Z,96028.34
2022-11-18T05:21:58.414Z,96030.78
2022-11-18T05:24:25.378Z,96020.44
2022-11-18T05:26:53.749Z,96033.22
2022-11-18T05:29:21.383Z,96034.88
2022-11-18T05:31:49.824Z,96027.91
2022-11-18T05:34:17.775Z,96035.66
2022-11-18T05:36:44.692Z,96037.59
2022-11-18T05:39:11.512Z,96037.75
2022-11-18T05:41:56.813Z,96038.69
2022-11-18T05:44:23.525Z,96029.16
2022-11-18T05:46:50.257Z,96039.22
2022-11-18T05:49:17.217Z,96037.84
2022-11-18T05:51:44.132Z,96043.84
2022-11-18T05:54:15.276Z,96040.28
2022-11-18T05:56:44.889Z,96044.91
2022-11-18T05:59:13.755Z,96041.25
2022-11-18T06:02:03.546Z,96052.56
2022-11-18T06:04:45.406Z,96050.94
2022-11-18T06:07:29.288Z,96055.16
2022-11-18T06:10:04.816Z,96055.28
2022-11-18T06:12:39.165Z,96048.22
2022-11-18T06:15:18.230Z,96055.84
2022-11-18T06:17:56.917Z,96054.19
2022-11-18T06:20:24.040Z,96056.63
2022-11-18T06:22:55.544Z,96064.25
2022-11-18T06:25:24.236Z,96069.44
2022-11-18T06:27:55.969Z,96064.25
2022-11-18T06:30:22.974Z,96067.66
2022-11-18T06:32:49.708Z,96071.06
2022-11-18T06:35:16.761Z,96084.81
2022-11-18T06:37:43.509Z,96081.44
2022-11-18T06:40:11.466Z,96086.47
2022-11-18T06:42:56.799Z,96083.88
2022-11-18T06:45:23.570Z,96084.69
2022-11-18T06:47:50.352Z,96083.72
2022-11-18T06:50:17.167Z,96087.94
2022-11-18T06:52:43.887Z,96102.50
2022-11-18T06:55:10.647Z,96100.06
2022-11-18T06:57:37.346Z,96099.09
2022-11-18T07:00:05.515Z,96104.28
2022-11-18T07:02:32.429Z,96104.03
2022-11-18T07:04:59.132Z,96099.38
2022-11-18T07:07:26.133Z,96118.97
2022-11-18T07:09:52.878Z,96119.78
2022-11-18T07:12:19.820Z,96122.22
2022-11-18T07:14:47.046Z,96118.69
2022-11-18T07:17:13.765Z,96123.03
2022-11-18T07:19:40.848Z,96127.56
2022-11-18T07:22:08.063Z,96135.03
2022-11-18T07:24:34.824Z,96133.13
2022-11-18T07:27:01.560Z,96138.28
2022-11-18T07:29:28.255Z,96145.25
2022-11-18T07:31:54.995Z,96142.81
2022-11-18T07:34:21.696Z,96144.59
2022-11-18T07:36:48.504Z,96145.41
2022-11-18T07:39:15.367Z,96146.22
2022-11-18T07:41:42.374Z,96147.72
2022-11-18T07:44:11.795Z,96151.94
2022-11-18T07:46:38.509Z,96153.56
2022-11-18T07:49:08.950Z,96156.84
2022-11-18T07:51:39.353Z,96159.72
2022-11-18T07:54:09.216Z,96156.44
2022-11-18T07:56:36.216Z,96168.44
2022-11-18T07:59:03.584Z,96169.13
2022-11-18T08:01:31.431Z,96171.69
2022-11-18T08:04:09.189Z,96180.16
2022-11-18T08:06:36.960Z,96172.38
2022-11-18T08:09:06.061Z,96166.22
2022-11-18T08:11:33.527Z,96179.19
2022-11-18T08:14:00.338Z,96187.09
2022-11-18T08:16:27.679Z,96184.66
2022-11-18T08:18:54.495Z,96186.13
2022-11-18T08:21:23.119Z,96183.03
2022-11-18T08:23:55.695Z,96174.97
2022-11-18T08:26:23.393Z,96184.66
2022-11-18T08:28:53.370Z,96184.00
2022-11-18T08:31:27.031Z,96196.09
2022-11-18T08:34:00.160Z,96192.28
2022-11-18T08:36:30.055Z,96195.53
2022-11-18T08:38:59.153Z,96191.03
2022-11-18T08:41:36.839Z,96196.88
2022-11-18T08:44:05.610Z,96194.44
2022-11-18T08:46:32.749Z,96201.25
2022-11-18T08:49:00.218Z,96195.41
2022-11-18T08:51:29.334Z,96199.75
2022-11-18T08:53:56.736Z,96205.91
2022-11-18T08:56:25.301Z,96209.44
2022-11-18T08:58:53.073Z,96207.16
2022-11-18T09:01:20.298Z,96207.16
2022-11-18T09:03:48.374Z,96219.00
2022-11-18T09:06:22.585Z,96216.41
2022-11-18T09:08:49.386Z,96215.44
2022-11-18T09:11:20.884Z,96221.31
2022-11-18T09:14:25.964Z,96220.34
2022-11-18T09:16:35.576Z,96222.63
2022-11-18T09:19:31.648Z,96225.22
2022-11-18T09:21:50.878Z,96225.38
2022-11-18T09:24:17.966Z,96233.28
2022-11-18T09:26:45.217Z,96230.69
2022-11-18T09:29:11.951Z,96232.31
2022-11-18T09:31:38.785Z,96227.00
2022-11-18T09:34:05.846Z,96227.00
2022-11-18T09:36:32.591Z,96249.50
2022-11-18T09:39:00.123Z,96251.13
2022-11-18T09:42:21.248Z,96243.66
2022-11-18T09:45:24.338Z,96255.78
2022-11-18T09:47:51.977Z,96257.28
2022-11-18T09:53:19.828Z,96260.16
2022-11-18T09:55:48.730Z,96257.41
2022-11-18T09:58:34.759Z,96260.69
2022-11-18T10:01:04.091Z,96260.28
2022-11-18T10:03:33.644Z,96255.25
2022-11-18T10:06:10.452Z,96260.13
2022-11-18T10:09:05.476Z,96259.31
2022-11-18T10:11:54.650Z,96256.59
2022-11-18T10:14:56.487Z,96271.59
2022-11-18T10:17:56.017Z,96275.41
2022-11-18T10:21:04.307Z,96271.59
2022-11-18T10:23:45.202Z,96275.81
2022-11-18T10:26:13.063Z,96276.78
2022-11-18T10:28:39.786Z,96277.84
2022-11-18T10:31:11.237Z,96287.53
2022-11-18T10:33:39.482Z,96295.31
2022-11-18T10:36:30.236Z,96279.25
2022-11-18T10:39:12.999Z,96290.44
2022-11-18T10:41:47.775Z,96285.91
2022-11-18T10:44:39.200Z,96296.13
2022-11-18T10:47:32.963Z,96289.59
2022-11-18T10:50:36.451Z,96288.66
2022-11-18T10:53:06.210Z,96295.47
2022-11-18T10:55:34.116Z,96289.31
2022-11-18T10:58:18.339Z,96296.13
2022-11-18T11:00:49.918Z,96286.72
2022-11-18T11:03:34.202Z,96298.06
2022-11-18T11:06:26.249Z,96295.59
2022-11-18T11:09:00.457Z,96299.97
2022-11-18T11:11:35.180Z,96300.78
2022-11-18T11:14:19.445Z,96298.63
2022-11-18T11:16:58.827Z,96296.72
2022-11-18T11:19:38.758Z,96299.97
2022-11-18T11:22:11.033Z,96300.94
2022-11-18T11:24:38.805Z,96291.53
2022-11-18T11:30:21.650Z,96297.91
2022-11-18T11:33:28.321Z,96298.56
2022-11-18T11:36:14.623Z,96304.56
2022-11-18T11:39:05.087Z,96296.94
2022-11-18T11:41:40.908Z,96302.94
2022-11-18T11:44:46.324Z,96302.94
2022-11-18T11:47:46.999Z,96309.75
2022-11-18T11:50:19.930Z,96306.50
2022-11-18T11:53:17.205Z,96308.28
2022-11-18T11:56:19.656Z,96305.69
2022-11-18T11:59:10.740Z,96309.34
2022-11-18T12:01:53.933Z,96311.13
2022-11-18T12:04:43.636Z,96306.09
2022-11-18T12:07:29.616Z,96316.16
2022-11-18T12:10:24.848Z,96312.75
2022-11-18T12:13:10.318Z,96310.31
2022-11-18T12:16:06.515Z,96312.75
2022-11-18T12:18:47.784Z,96315.22
2022-11-18T12:21:43.852Z,96317.00
2022-11-18T12:24:31.230Z,96313.72
2022-11-18T12:27:02.246Z,96313.88
2022-11-18T12:29:49.148Z,96315.66
2022-11-18T12:32:43.449Z,96313.88
2022-11-18T12:35:12.764Z,96311.13
2022-11-18T12:37:51.996Z,96320.25
2022-11-18T12:40:52.334Z,96315.75
2022-11-18T12:44:00.551Z,96314.94
2022-11-18T12:46:27.182Z,96321.50
2022-11-18T12:48:53.903Z,96318.47
2022-11-18T12:51:24.612Z,96317.66
2022-11-18T12:53:53.566Z,96319.00
2022-11-18T12:56:34.462Z,96316.09
2022-11-18T12:59:02.391Z,96324.44
2022-11-18T13:01:35.096Z,96332.06
2022-11-18T13:04:22.400Z,96324.16
2022-11-18T13:06:52.927Z,96334.53
2022-11-18T13:09:34.402Z,96330.00
2022-11-18T13:12:08.788Z,96334.66
2022-11-18T13:14:59.757Z,96322.22
2022-11-18T13:17:53.744Z,96319.47
2022-11-18T13:20:37.179Z,96327.41
2022-11-18T13:23:28.757Z,96326.88
2022-11-18T13:26:12.252Z,96325.22
2022-11-18T13:29:27.036Z,96330.69
2022-11-18T13:32:08.154Z,96335.56
2022-11-18T13:34:58.883Z,96338.16
2022-11-18T13:37:30.549Z,96348.69
2022-11-18T13:39:57.512Z,96336.69
2022-11-18T13:42:29.607Z,96342.97
2022-11-18T13:44:59.512Z,96348.31
2022-11-18T13:47:54.076Z,96352.13
2022-11-18T13:50:40.674Z,96351.44
2022-11-18T13:53:30.141Z,96348.03
2022-11-18T13:56:34.936Z,96344.09
2022-11-18T13:59:20.621Z,96352.81
2022-11-18T14:01:56.191Z,96346.00
2022-11-18T14:04:27.321Z,96348.47
2022-11-18T14:07:14.372Z,96350.91
2022-11-18T14:10:01.084Z,96346.53
2022-11-18T14:12:32.683Z,96353.50
2022-11-18T14:15:37.945Z,96354.31
2022-11-18T14:18:21.236Z,96355.28
2022-11-18T14:20:54.327Z,96363.88
2022-11-18T14:23:37.133Z,96359.34
2022-11-18T14:26:06.830Z,96358.38
2022-11-18T14:28:37.043Z,96366.16
2022-11-18T14:31:26.385Z,96363.56
2022-11-18T14:34:23.790Z,96373.94
2022-11-18T14:36:52.029Z,96378.19
2022-11-18T14:39:28.205Z,96377.34
2022-11-18T14:41:56.918Z,96371.34
2022-11-18T14:44:26.800Z,96372.31
2022-11-18T14:47:02.848Z,96383.63
2022-11-18T14:49:32.505Z,96385.56
2022-11-18T14:52:02.458Z,96391.84
2022-11-18T14:54:29.535Z,96382.56
2022-11-18T14:57:02.397Z,96381.75
2022-11-18T14:59:29.180Z,96381.91
2022-11-18T15:01:57.011Z,96391.31
2022-11-18T15:04:25.113Z,96391.31
2022-11-18T15:06:51.839Z,96392.94
2022-11-18T15:09:18.639Z,96393.09
2022-11-18T15:11:45.457Z,96395.78
2022-11-18T15:14:12.180Z,96399.22
2022-11-18T15:16:38.912Z,96394.72
2022-11-18T15:19:09.999Z,96406.16
2022-11-18T15:21:36.722Z,96407.09
2022-11-18T15:24:03.601Z,96412.28
2022-11-18T15:26:43.408Z,96407.00
2022-11-18T15:29:23.643Z,96414.63
2022-11-18T15:31:54.137Z,96413.81
2022-11-18T15:34:23.580Z,96422.41
2022-11-18T15:36:50.523Z,96420.78
2022-11-18T15:39:17.353Z,96422.53
2022-11-18T15:41:44.178Z,96425.25
2022-11-18T15:44:12.315Z,96427.03
2022-11-18T15:46:39.830Z,96423.63
2022-11-18T15:49:09.764Z,96422.78
2022-11-18T15:51:37.054Z,96438.19
2022-11-18T15:54:03.861Z,96434.94
2022-11-18T15:56:32.777Z,96439.31
2022-11-18T15:59:13.687Z,96434.25
2022-11-18T16:01:49.158Z,96443.66
2022-11-18T16:04:18.941Z,96439.31
2022-11-18T16:06:46.423Z,96448.72
2022-11-18T16:09:14.891Z,96451.16
2022-11-18T16:12:00.622Z,96452.13
2022-11-18T16:14:27.386Z,96448.84
2022-11-18T16:16:57.128Z,96457.44
2022-11-18T16:19:26.817Z,96454.03
2022-11-18T16:21:56.614Z,96455.81
2022-11-18T16:24:27.425Z,96455.81
2022-11-18T16:26:54.672Z,96455.00
2022-11-18T16:29:23.394Z,96460.03
2022-11-18T16:31:52.173Z,96468.91
2022-11-18T16:34:27.029Z,96481.19
2022-11-18T16:37:01.211Z,96479.41
2022-11-18T16:39:29.368Z,96477.78
2022-11-18T16:42:06.816Z,96484.72
2022-11-18T16:44:34.897Z,96482.94
2022-11-18T16:47:01.676Z,96487.31
2022-11-18T16:49:28.430Z,96483.78
2022-11-18T16:51:56.897Z,96480.09
2022-11-18T16:54:29.136Z,96493.84
2022-11-18T16:56:58.966Z,96489.63
2022-11-18T16:59:31.002Z,96493.84
2022-11-18T17:02:00.292Z,96495.50
2022-11-18T17:04:29.892Z,96499.03
2022-11-18T17:06:59.795Z,96498.22
2022-11-18T17:09:27.225Z,96496.44
2022-11-18T17:11:55.719Z,96494.53
2022-11-18T17:14:23.269Z,96499.72
2022-11-18T17:16:51.841Z,96505.56
2022-11-18T17:19:24.163Z,96509.00
2022-11-18T17:21:52.537Z,96506.66
2022-11-18T17:24:23.061Z,96502.72
2022-11-18T17:26:52.131Z,96509.50
2022-11-18T17:29:19.462Z,96513.75
2022-11-18T17:31:46.519Z,96524.22
2022-11-18T17:34:14.726Z,96527.91
2022-11-18T17:36:42.304Z,96516.84
2022-11-18T17:39:13.485Z,96520.53
2022-11-18T17:41:59.342Z,96521.34
2022-11-18T17:44:28.988Z,96514.53
2022-11-18T17:46:55.908Z,96529.53
2022-11-18T17:49:22.766Z,96519.97
2022-11-18T17:51:51.089Z,96525.16
2022-11-18T17:54:18.583Z,96527.75
2022-11-18T17:56:47.009Z,96525.97
2022-11-18T17:59:14.582Z,96520.94
2022-11-18T18:01:41.383Z,96536.75
2022-11-18T18:04:08.513Z,96532.75
2022-11-18T18:06:35.451Z,96537.53
2022-11-18T18:09:02.215Z,96540.78
2022-11-18T18:11:29.027Z,96537.53
2022-11-18T18:14:13.913Z,96537.53
2022-11-18T18:16:50.101Z,96545.00
2022-11-18T18:19:20.828Z,96553.75
2022-11-18T18:21:48.682Z,96543.25
2022-11-18T18:24:18.076Z,96567.09
2022-11-18T18:26:45.830Z,96558.41
2022-11-18T18:29:13.055Z,96556.06
2022-11-18T18:31:40.207Z,96552.66
2022-11-18T18:34:07.120Z,96546.09
2022-11-18T18:36:33.923Z,96552.91
2022-11-18T18:39:02.071Z,96548.28
2022-11-18T18:41:29.150Z,96548.72
2022-11-18T18:43:56.568Z,96555.28
2022-11-18T18:46:28.526Z,96560.72
2022-11-18T18:49:20.302Z,96566.63
2022-11-18T18:51:50.529Z,96568.25
2022-11-18T18:54:20.311Z,96566.63
2022-11-18T18:56:47.413Z,96572.63
2022-11-18T18:59:14.130Z,96564.84
2022-11-18T19:01:41.483Z,96571.81
2022-11-18T19:04:13.441Z,96571.00
2022-11-18T19:09:28.787Z,96584.19
2022-11-18T19:12:14.686Z,96566.88
2022-11-18T19:14:41.578Z,96592.75
2022-11-18T19:17:11.812Z,96590.19
2022-11-18T19:20:01.374Z,96599.84
2022-11-18T19:22:33.461Z,96599.84
2022-11-18T19:25:01.302Z,96604.34
2022-11-18T19:27:29.739Z,96607.34
2022-11-18T19:29:56.584Z,96613.47
2022-11-18T19:32:23.493Z,96607.59
2022-11-18T19:34:50.260Z,96602.66
2022-11-18T19:37:17.074Z,96605.53
2022-11-18T19:39:43.821Z,96613.97
2022-11-18T19:42:10.903Z,96618.34
2022-11-18T19:44:38.854Z,96622.69
2022-11-18T19:47:05.719Z,96614.94
2022-11-18T19:49:32.417Z,96625.28
2022-11-18T19:51:59.087Z,96614.25
2022-11-18T19:54:25.773Z,96615.88
2022-11-18T19:56:52.465Z,96629.78
2022-11-18T19:59:19.401Z,96622.00
2022-11-18T20:01:46.334Z,96625.81
2022-11-18T20:04:13.077Z,96630.50
2022-11-18T20:06:40.342Z,96640.72
2022-11-18T20:09:09.297Z,96639.78
2022-11-18T20:11:36.348Z,96637.31
2022-11-18T20:14:03.243Z,96642.31
2022-11-18T20:16:30.540Z,96645.78
2022-11-18T20:19:17.738Z,96646.72
2022-11-18T20:21:44.732Z,96645.34
2022-11-18T20:24:17.812Z,96644.41
2022-11-18T20:26:45.633Z,96645.22
2022-11-18T20:29:13.733Z,96646.03
2022-11-18T20:31:40.910Z,96645.22
2022-11-18T20:34:09.079Z,96655.56
2022-11-18T20:36:36.678Z,96646.16
2022-11-18T20:39:12.527Z,96643.59
2022-11-18T20:41:39.235Z,96652.84
2022-11-18T20:44:05.996Z,96650.94
2022-11-18T20:46:34.246Z,96660.50
2022-11-18T20:49:01.614Z,96653.53
2022-11-18T20:51:29.313Z,96651.91
2022-11-18T20:53:57.626Z,96656.13
2022-11-18T20:56:28.172Z,96656.97
2022-11-18T20:58:57.738Z,96664.66
2022-11-18T21:01:27.784Z,96663.00
2022-11-18T21:04:00.879Z,96670.03
2022-11-18T21:06:31.835Z,96675.72
2022-11-18T21:09:05.091Z,96665.31
2022-11-18T21:11:35.454Z,96682.53
2022-11-18T21:14:24.091Z,96691.44
2022-11-18T21:17:02.826Z,96696.91
2022-11-18T21:19:30.212Z,96699.53
2022-11-18T21:21:57.275Z,96695.81
2022-11-18T21:24:32.519Z,96709.00
2022-11-18T21:27:02.189Z,96711.25
2022-11-18T21:29:31.336Z,96713.50
2022-11-18T21:32:02.332Z,96721.63
2022-11-18T21:34:30.052Z,96726.34
2022-11-18T21:36:57.169Z,96727.63
2022-11-18T21:39:25.098Z,96731.41
2022-11-18T21:41:57.864Z,96748.09
2022-11-18T21:44:27.602Z,96753.53
2022-11-18T21:46:54.796Z,96743.88
2022-11-18T21:49:22.062Z,96751.41
2022-11-18T21:51:49.228Z,96743.66
2022-11-18T21:54:18.007Z,96737.34
2022-11-18T21:56:44.782Z,96746.97
2022-11-18T21:59:11.512Z,96747.28
2022-11-18T22:01:38.234Z,96746.97
2022-11-18T22:04:05.804Z,96755.03
2022-11-18T22:06:34.204Z,96753.50
2022-11-18T22:09:03.176Z,96763.13
2022-11-18T22:11:30.101Z,96768.44
2022-11-18T22:13:57.203Z,96764.31
2022-11-18T22:16:26.004Z,96757.03
2022-11-18T22:19:00.256Z,96760.91
2022-11-18T22:21:28.218Z,96768.25
2022-11-18T22:24:00.399Z,96766.63
2022-11-18T22:26:28.316Z,96763.56
2022-11-18T22:28:57.850Z,96770.03
2022-11-18T22:31:27.753Z,96772.00
2022-11-18T22:33:55.953Z,96785.72
2022-11-18T22:36:26.035Z,96780.66
2022-11-18T22:38:53.807Z,96779.97
2022-11-18T22:41:42.745Z,96771.53
2022-11-18T22:44:11.827Z,96770.59
2022-11-18T22:46:41.224Z,96762.84
2022-11-18T22:49:09.745Z,96769.66
2022-11-18T22:51:38.480Z,96763.19
2022-11-18T22:56:56.738Z,96779.34
2022-11-18T22:59:24.821Z,96782.16
2022-11-18T23:01:52.159Z,96789.28
2022-11-18T23:04:19.310Z,96798.66
2022-11-18T23:06:46.010Z,96800.31
2022-11-18T23:09:12.877Z,96796.88
2022-11-18T23:11:58.197Z,96804.28
2022-11-18T23:14:25.076Z,96807.97
2022-11-18T23:16:51.855Z,96804.91
2022-11-18T23:19:19.310Z,96805.13
2022-11-18T23:21:46.763Z,96813.69
2022-11-18T23:24:17.042Z,96805.94
2022-11-18T23:26:44.641Z,96815.44
2022-11-18T23:29:14.041Z,96822.47
2022-11-18T23:31:44.076Z,96826.91
2022-11-18T23:34:13.503Z,96821.06
2022-11-18T23:36:40.998Z,96815.97
2022-11-18T23:39:09.317Z,96826.41
2022-11-18T23:41:36.440Z,96815.59
2022-11-18T23:44:03.912Z,96812.31
2022-11-18T23:46:31.070Z,96820.28
2022-11-18T23:48:57.949Z,96819.75
2022-11-18T23:51:26.096Z,96816.81
2022-11-18T23:53:57.493Z,96825.56
2022-11-18T23:56:27.085Z,96831.88
2022-11-18T23:58:56.501Z,96827.88
